createdAt,value
2022-12-01T00:01:17.179Z,101650
2022-12-01T00:15:19.544Z,101643
2022-12-01T00:29:21.310Z,101632
2022-12-01T00:43:24.710Z,101630
2022-12-01T00:57:27.655Z,101621
2022-12-01T01:11:30.530Z,101623
2022-12-01T01:25:31.504Z,101648
2022-12-01T01:39:32.297Z,101662
2022-12-01T01:53:34.043Z,101667
2022-12-01T02:07:35.468Z,101669
2022-12-01T02:21:37.420Z,101668
2022-12-01T02:35:39.578Z,101659
2022-12-01T02:49:40.901Z,101662
2022-12-01T03:03:41.769Z,101664
2022-12-01T03:17:42.258Z,101659
2022-12-01T03:31:45.452Z,101667
2022-12-01T03:45:46.775Z,101655
2022-12-01T03:59:47.558Z,101671
2022-12-01T04:13:50.659Z,101670
2022-12-01T04:27:52.698Z,101664
2022-12-01T04:41:53.462Z,101661
2022-12-01T04:55:55.096Z,101664
2022-12-01T05:09:57.085Z,101650
2022-12-01T05:23:58.458Z,101654
2022-12-01T05:38:03.244Z,101667
2022-12-01T05:52:02.673Z,101660
2022-12-01T06:06:03.305Z,101674
2022-12-01T06:20:05.338Z,101657
2022-12-01T06:34:06.922Z,101668
2022-12-01T06:48:09.023Z,101681
2022-12-01T07:02:11.630Z,101687
2022-12-01T07:16:14.849Z,101705
2022-12-01T07:30:14.639Z,101699
2022-12-01T07:44:18.042Z,101702
2022-12-01T07:58:20.821Z,101711
2022-12-01T08:12:21.358Z,101733
2022-12-01T08:26:23.986Z,101744
2022-12-01T08:40:25.715Z,101762
2022-12-01T08:54:28.106Z,101751
2022-12-01T09:08:30.372Z,101750
2022-12-01T09:22:32.327Z,101755
2022-12-01T09:36:35.497Z,101760
2022-12-01T09:50:38.322Z,101770
2022-12-01T10:04:40.943Z,101764
2022-12-01T10:18:43.620Z,101757
2022-12-01T10:32:47.598Z,101738
2022-12-01T10:46:50.695Z,101735
2022-12-01T11:01:00.664Z,101717
2022-12-01T11:14:56.334Z,101702
2022-12-01T11:28:56.660Z,101698
2022-12-01T11:42:59.668Z,101691
2022-12-01T11:57:25.737Z,101697
2022-12-01T12:11:01.617Z,101690
2022-12-01T12:25:03.140Z,101678
2022-12-01T12:39:05.836Z,101670
2022-12-01T12:53:06.441Z,101656
2022-12-01T13:07:07.946Z,101650
2022-12-01T13:21:09.821Z,101633
2022-12-01T13:35:11.784Z,101630
2022-12-01T13:49:13.294Z,101619
2022-12-01T14:03:15.885Z,101626
2022-12-01T14:17:19.234Z,101615
2022-12-01T14:31:21.604Z,101619
2022-12-01T14:45:22.489Z,101614
2022-12-01T14:59:25.890Z,101620
2022-12-01T15:13:26.268Z,101621
2022-12-01T15:27:24.893Z,101604
2022-12-01T15:41:29.310Z,101612
2022-12-01T15:56:07.021Z,101623
2022-12-01T16:09:51.672Z,101627
2022-12-01T16:23:58.357Z,101630
2022-12-01T16:38:04.584Z,101638
2022-12-01T16:52:42.804Z,101642
2022-12-01T17:06:19.821Z,101652
2022-12-01T17:20:23.409Z,101667
2022-12-01T17:34:40.802Z,101672
2022-12-01T17:48:54.773Z,101660
2022-12-01T18:02:57.855Z,101662
2022-12-01T18:17:14.528Z,101640
2022-12-01T18:31:23.144Z,101641
2022-12-01T18:45:31.218Z,101643
2022-12-01T18:59:39.901Z,101643
2022-12-01T19:13:45.717Z,101644
2022-12-01T19:28:00.477Z,101641
2022-12-01T19:42:06.964Z,101641
2022-12-01T19:56:20.299Z,101629
2022-12-01T20:10:35.030Z,101643
2022-12-01T20:24:45.127Z,101632
2022-12-01T20:38:58.364Z,101636
2022-12-01T20:53:01.406Z,101627
2022-12-01T21:07:18.283Z,101619
2022-12-01T21:21:28.648Z,101608
2022-12-01T21:35:39.889Z,101604
2022-12-01T21:49:53.948Z,101607
2022-12-01T22:04:00.630Z,101584
2022-12-01T22:18:00.619Z,101578
2022-12-01T22:32:16.077Z,101574
2022-12-01T22:46:24.473Z,101563
2022-12-01T23:00:39.915Z,101564
2022-12-01T23:14:52.482Z,101578
2022-12-01T23:29:09.450Z,101548
2022-12-01T23:43:21.957Z,101541
2022-12-01T23:57:27.272Z,101531
